Latest Coastal Weather Observations for Christmas Island

IDW60701

Issued at 8:53 pm WST Friday 26 May 2017 (issued every 10 minutes, with the page automatically refreshed every 10 minutes)

About coastal observations | Map of coastal stations | Coastal observations for WA | Marine services | Other Formats
Station Details ID: 200790 Name: CHRISTMAS ISLAND AERO Lat: -10.45 Lon: 105.69 Height: 261.0 m
Data from the previous 72 hours. | See also: Recent months at Christmas Island
Date/Time
WST
Temp
°C
Wind Pressure Rain since
9am
mm
Weather Cloud Vis
km
Sea
Height
m
Swell
Dir  Spd
kts
Gust
kts
hPa Trend Height
m
Period
s
Dir
26/08:30pm 25.0 SE 12 17 1013.0 - 0.2 - Partly cloudy 10 - - - -
26/08:13pm 25.2 SE 15 26 1012.8 - 0.0 - Partly cloudy 10 - - - -
26/08:00pm 25.5 SE 14 22 1012.6 - 0.0 - Partly cloudy 10 - - - -
26/07:45pm 25.5 SE 15 25 1012.5 - 0.0 - Partly cloudy 10 - - - -
26/07:30pm 25.4 SE 12 19 1012.4 - 0.0 - Partly cloudy 10 - - - -
26/07:00pm 25.4 SE 12 17 1010.4 - 0.0 - Cloudy 10 - - - -
26/06:30pm 25.5 SE 13 21 1012.1 - 0.0 - Partly cloudy 10 - - - -
26/06:00pm 25.6 SE 11 19 1012.1 - 0.0 - Partly cloudy 10 - - - -
26/05:30pm 25.6 SE 11 16 1011.9 - 0.0 - Partly cloudy 10 - - - -
26/05:00pm 26.0 SE 11 16 1011.8 - 0.0 - Partly cloudy 10 - - - -
26/04:30pm 25.9 SE 12 17 1011.8 - 0.0 - Partly cloudy 10 - - - -
26/04:00pm 26.1 SE 11 17 1010.3 - 0.0 - Cloudy 10 - - - -
26/03:30pm 26.4 SE 12 18 1012.2 - 0.0 - Partly cloudy 10 - - - -
26/03:23pm 26.5 SE 12 18 1012.2 - 0.0 - Partly cloudy 10 - - - -
26/03:22pm 26.5 SE 12 18 1012.2 - 0.0 - Partly cloudy 10 - - - -
26/03:00pm 26.3 SE 13 19 1012.4 - 0.0 - Partly cloudy 10 - - - -
26/02:30pm 26.3 SE 13 19 1012.6 - 0.0 - Partly cloudy 10 - - - -
26/02:00pm 26.7 SE 12 17 1012.9 - 0.0 - Partly cloudy 10 - - - -
26/01:30pm 26.4 SE 11 15 1013.5 - 0.0 - Partly cloudy 10 - - - -
26/01:00pm 26.3 SE 12 17 1012.2 - 0.0 - Cloudy 10 - - - -
26/12:30pm 26.3 SE 13 18 1014.0 - 0.0 - Partly cloudy 10 - - - -
26/12:00pm 26.6 SE 13 20 1014.3 - 0.0 - Partly cloudy 10 - - - -
26/11:30am 26.6 SE 12 17 1014.6 - 0.0 - Partly cloudy 10 - - - -
26/11:10am 26.6 SE 12 19 1014.6 - 0.0 - Partly cloudy 10 - - - -
26/11:00am 26.7 SE 12 19 1014.6 - 0.0 - Partly cloudy 10 - - - -
26/10:55am 26.1 SE 11 16 1014.6 - 0.0 - Partly cloudy 10 - - - -
26/10:30am 25.9 SE 11 19 1014.7 - 0.0 - Partly cloudy 10 - - - -
26/10:00am 26.4 SE 12 19 1013.1 - 0.0 - Cloudy 10 - - - -
26/09:53am 26.6 SE 12 19 1014.7 - 0.0 - Partly cloudy 10 - - - -
26/09:30am 25.9 SE 12 18 1014.7 - 0.0 - Partly cloudy 10 - - - -
26/09:20am 26.0 SE 11 17 1014.7 - 0.0 - Partly cloudy 10 - - - -
26/09:00am 25.8 SE 11 16 1014.6 - 0.0 - Partly cloudy 10 - - - -
26/08:39am 25.5 SE 11 18 1014.4 - 0.0 - Partly cloudy 10 - - - -
26/08:32am 25.5 SE 11 18 1014.3 - 0.0 - Partly cloudy 10 - - - -
26/08:30am 25.4 SE 11 16 1014.3 - 0.0 - Partly cloudy 10 - - - -
26/08:19am 25.3 SE 10 17 1014.2 - 0.0 - Partly cloudy 10 - - - -
26/08:00am 25.6 SE 11 17 1014.1 - 0.0 - Partly cloudy 10 - - - -
26/07:39am 25.0 SE 9 15 1014.0 - 0.0 - Partly cloudy 10 - - - -
26/07:30am 24.8 SE 9 14 1013.9 - 0.0 - Partly cloudy 10 - - - -
26/07:00am 24.8 SE 11 15 1012.1 - 0.0 - Cloudy 10 - - - -
26/06:30am 24.7 SE 9 13 1013.6 - 0.0 - Partly cloudy 10 - - - -
26/06:00am 24.8 SE 10 15 1013.4 - 0.0 - Partly cloudy 10 - - - -
26/05:30am 24.8 SE 10 14 1013.5 - 0.0 - Partly cloudy 10 - - - -
26/05:21am 24.8 SE 10 17 1013.6 - 0.0 - Partly cloudy 10 - - - -
26/05:00am 24.7 SE 10 15 1013.6 - 0.0 - Partly cloudy 10 - - - -
26/04:30am 24.8 SE 10 15 1013.6 - 0.0 - Partly cloudy 10 - - - -
26/04:01am 25.0 ESE 10 15 1013.7 - 0.0 - Partly cloudy 10 - - - -
26/04:00am 25.0 ESE 10 17 1012.1 - 0.0 - Cloudy 10 - - - -
26/03:59am 25.0 ESE 11 17 1013.7 - 0.0 - Partly cloudy 10 - - - -
26/03:30am 24.9 SE 11 16 1013.8 - 0.0 - Partly cloudy 10 - - - -
26/03:00am 24.9 SE 11 16 1014.0 - 0.0 - Partly cloudy 10 - - - -
26/02:30am 25.0 ESE 12 17 1014.2 - 0.0 - Partly cloudy 10 - - - -
26/02:00am 25.1 SE 11 16 1014.4 - 0.0 - Partly cloudy 10 - - - -
26/01:30am 25.2 ESE 11 18 1014.5 - 0.0 - Partly cloudy 10 - - - -
26/01:00am 25.2 ESE 11 17 1013.0 - 0.0 - Cloudy 10 - - - -
26/12:53am 25.3 ESE 12 16 1014.6 - 0.0 - Partly cloudy 10 - - - -
26/12:30am 25.2 SE 12 20 1014.7 - 0.0 - Cloudy 10 - - - -
26/12:00am 25.2 SE 11 20 1014.6 - 0.0 - Partly cloudy 10 - - - -
 
Date/Time
WST
Temp
°C
Wind Pressure Rain since
9am
mm
Weather Cloud Vis
km
Sea
Height
m
Swell
Dir  Spd
kts
Gust
kts
hPa Trend Height
m
Period
s
Dir
25/11:30pm 25.2 SE 13 19 1014.5 - 0.0 - Partly cloudy 10 - - - -
25/11:00pm 25.2 SE 12 19 1014.5 - 0.0 - Partly cloudy 10 - - - -
25/10:44pm 25.1 SE 13 19 1014.5 - 0.0 - Partly cloudy 10 - - - -
25/10:30pm 25.1 SE 13 19 1014.5 - 0.0 - Partly cloudy 10 - - - -
25/10:19pm 25.2 SE 13 20 1014.4 - 0.0 - Partly cloudy 10 - - - -
25/10:00pm 25.2 ESE 13 21 1012.8 - 0.0 - Cloudy 10 - - - -
25/09:30pm 25.2 SE 13 19 1014.2 - 0.0 - Partly cloudy 10 - - - -
25/09:00pm 25.1 SE 14 19 1014.0 - 0.0 - Partly cloudy 10 - - - -
25/08:30pm 25.1 SE 13 19 1013.5 - 0.0 - Partly cloudy 10 - - - -
25/08:00pm 25.2 SE 13 19 1013.3 - 0.0 - Partly cloudy 10 - - - -
25/07:30pm 25.2 SE 15 22 1013.0 - 0.0 - Partly cloudy 10 - - - -
25/07:21pm 25.2 SE 13 20 1012.8 - 0.0 - Partly cloudy 10 - - - -
25/07:19pm 25.3 SE 13 20 1012.8 - 0.0 - Partly cloudy 10 - - - -
25/07:00pm 25.2 SE 13 20 1011.0 - 0.0 - Cloudy 10 - - - -
25/06:30pm 25.2 SE 13 19 1012.7 - 0.0 - Partly cloudy 10 - - - -
25/06:00pm 25.3 SE 12 17 1012.4 - 0.0 - Partly cloudy 10 - - - -
25/05:30pm 25.4 SE 13 18 1012.3 - 0.0 - Partly cloudy 10 - - - -
25/05:00pm 25.7 ESE 13 19 1011.9 - 0.0 - Partly cloudy 10 - - - -
25/04:30pm 25.7 ESE 14 20 1011.8 - 0.0 - Partly cloudy 10 - - - -
25/04:06pm 25.9 ESE 14 20 1011.8 - 0.0 - Partly cloudy 10 - - - -
25/04:00pm 25.9 SE 14 19 1010.2 - 0.0 - Cloudy 10 - - - -
25/03:59pm 25.9 SE 14 19 1011.8 - 0.0 - Partly cloudy 10 - - - -
25/03:32pm 26.1 SE 13 19 1012.1 - 0.0 - Partly cloudy 10 - - - -
25/03:30pm 26.3 SE 13 19 1012.1 - 0.0 - Partly cloudy 10 - - - -
25/03:04pm 26.3 SE 14 20 1012.3 - 0.0 - Partly cloudy 10 - - - -
25/03:00pm 26.2 SE 14 20 1012.4 - 0.0 - Partly cloudy 10 - - - -
25/02:30pm 25.8 SE 15 22 1012.7 - 0.0 - Partly cloudy 10 - - - -
25/02:10pm 25.6 ESE 12 18 1013.0 - 0.0 - Partly cloudy 10 - - - -
25/02:00pm 25.8 ESE 12 17 1013.1 - 0.0 - Partly cloudy 10 - - - -
25/01:30pm 26.4 ESE 15 20 1013.5 - 0.0 - Partly cloudy 10 - - - -
25/01:00pm 26.6 ESE 14 20 1012.2 - 0.0 - Cloudy 10 - - - -
25/12:30pm 27.0 ESE 14 19 1014.0 - 0.0 - Partly cloudy 10 - - - -
25/12:00pm 26.3 ESE 15 21 1014.4 - 0.0 - Partly cloudy 10 - - - -
25/11:30am 26.1 ESE 15 21 1014.6 - 0.0 - Partly cloudy 10 - - - -
25/11:00am 26.3 ESE 15 22 1014.5 - 0.0 - Partly cloudy 10 - - - -
25/10:30am 26.5 ESE 15 20 1014.6 - 0.0 - Partly cloudy 10 - - - -
25/10:00am 26.4 SE 15 21 1012.8 - 0.0 - Mostly cloudy 10 - - - -
25/09:30am 26.5 ESE 14 19 1014.3 - 0.0 - Partly cloudy 10 - - - -
25/09:00am 26.1 ESE 14 21 1014.4 - 0.0 - Partly cloudy 10 - - - -
25/08:30am 26.1 ESE 14 19 1014.1 - 0.0 - Partly cloudy 10 - - - -
25/08:00am 25.7 ESE 14 24 1013.9 - 0.0 - Partly cloudy 10 - - - -
25/07:30am 25.2 ESE 13 20 1013.8 - 0.0 - Partly cloudy 10 - - - -
25/07:00am 24.9 SE 12 17 1011.9 - 0.0 - Cloudy 10 - - - -
25/06:30am 25.0 ESE 12 18 1013.2 - 0.0 - Partly cloudy 10 - - - -
25/06:00am 24.8 ESE 14 21 1013.1 - 0.0 - Partly cloudy 10 - - - -
25/05:30am 24.9 ESE 12 19 1012.9 - 0.0 - Partly cloudy 10 - - - -
25/05:00am 24.8 ESE 13 18 1012.8 - 0.0 - Partly cloudy 10 - - - -
25/04:30am 24.8 ESE 13 19 1012.7 - 0.0 - Partly cloudy 10 - - - -
25/04:00am 24.7 ESE 13 19 1011.0 - 0.0 - Mostly clear 10 - - - -
25/03:30am 24.9 ESE 14 20 1012.8 - 0.0 - Partly cloudy 10 - - - -
25/03:00am 24.8 ESE 13 19 1013.1 - 0.0 - Partly cloudy 10 - - - -
25/02:30am 24.9 ESE 13 20 1013.3 - 0.0 - Partly cloudy 10 - - - -
25/02:00am 25.0 ESE 14 21 1013.6 - 0.0 - Partly cloudy 10 - - - -
25/01:30am 25.0 ESE 13 20 1013.9 - 0.0 - Partly cloudy 10 - - - -
25/01:00am 25.1 ESE 13 19 1012.5 - 0.0 - Cloudy 10 - - - -
25/12:30am 25.0 ESE 13 19 1014.2 - 0.0 - Partly cloudy 10 - - - -
25/12:00am 25.2 ESE 15 23 1014.3 - 0.0 - Partly cloudy 10 - - - -
 
Date/Time
WST
Temp
°C
Wind Pressure Rain since
9am
mm
Weather Cloud Vis
km
Sea
Height
m
Swell
Dir  Spd
kts
Gust
kts
hPa Trend Height
m
Period
s
Dir
24/11:30pm 25.3 ESE 14 21 1014.4 - 0.0 - Partly cloudy 10 - - - -
24/11:00pm 25.4 ESE 14 19 1014.4 - 0.0 - Partly cloudy 10 - - - -
24/10:30pm 25.5 ESE 14 19 1014.4 - 0.0 - Partly cloudy 10 - - - -
24/10:00pm 25.6 ESE 13 18 1012.6 - 0.0 - Cloudy 10 - - - -
24/09:30pm 25.5 ESE 13 22 1014.0 - 0.0 - Partly cloudy 10 - - - -
24/09:00pm 25.6 ESE 13 21 1013.8 - 0.0 - Partly cloudy 10 - - - -
24/08:30pm 25.6 ESE 14 21 1013.6 - 0.0 - Partly cloudy 10 - - - -
24/08:00pm 25.7 ESE 13 19 1013.2 - 0.0 - Partly cloudy 10 - - - -
24/07:30pm 25.8 ESE 13 20 1013.1 - 0.0 - Partly cloudy 10 - - - -
24/07:00pm 25.7 ESE 13 17 1011.2 - 0.0 - Cloudy 10 - - - -
24/06:30pm 25.8 ESE 13 18 1012.7 - 0.0 - Partly cloudy 10 - - - -
24/06:00pm 25.9 ESE 12 19 1012.5 - 0.0 - Partly cloudy 10 - - - -
24/05:30pm 25.9 ESE 13 21 1012.2 - 0.0 - Partly cloudy 10 - - - -
24/05:00pm 26.2 ESE 12 18 1012.1 - 0.0 - Partly cloudy 10 - - - -
24/04:30pm 27.0 ESE 12 16 1012.1 - 0.0 - Partly cloudy 10 - - - -
24/04:00pm 27.2 ESE 13 19 1010.4 - 0.0 - Cloudy 10 - - - -
24/03:30pm 26.6 ESE 12 19 1012.2 - 0.0 - Partly cloudy 10 - - - -
24/03:00pm 26.6 ESE 11 22 1012.4 - 0.0 - Partly cloudy 10 - - - -
24/02:30pm 27.2 ESE 11 17 1012.8 - 0.0 - Partly cloudy 10 - - - -
24/02:00pm 27.7 ESE 12 17 1013.2 - 0.0 - Partly cloudy 10 - - - -
24/01:30pm 27.5 E 12 18 1013.4 - 0.0 - Partly cloudy 10 - - - -
24/01:00pm 27.7 E 11 18 1012.1 - 0.0 - Partly cloudy 10 - - - -
24/12:30pm 27.3 ESE 13 20 1013.8 - 0.0 - Partly cloudy 10 - - - -
24/12:00pm 27.3 ESE 13 20 1014.2 - 0.0 - Partly cloudy 10 - - - -
24/11:30am 27.6 ESE 12 19 1014.5 - 0.0 - Partly cloudy 10 - - - -
24/11:00am 27.8 ESE 13 22 1014.7 - 0.0 - Partly cloudy 10 - - - -
24/10:30am 26.5 ESE 13 23 1014.8 - 0.0 - Partly cloudy 10 - - - -
24/10:00am 27.0 ESE 14 23 1013.1 - 0.0 - Partly cloudy 10 - - - -
24/09:30am 26.5 ESE 15 22 1014.4 - 0.0 - Partly cloudy 10 - - - -
24/09:00am 26.4 ESE 15 25 1014.2 - 0.0 - Partly cloudy 10 - - - -
24/08:30am 26.1 ESE 14 25 1014.0 - 0.0 - Partly cloudy 10 - - - -
24/08:26am 26.0 ESE 15 25 1013.9 - 0.0 - Partly cloudy 10 - - - -
24/08:00am 26.1 E 11 17 1013.8 - 0.0 - Partly cloudy 10 - - - -
24/07:30am 25.5 ESE 13 20 1013.6 - 0.0 - Cloudy 10 - - - -
24/07:13am 25.4 ESE 11 16 1013.4 - 0.0 - Partly cloudy 10 - - - -
24/07:00am 25.5 E 12 23 1011.6 - 0.0 - Cloudy 10 - - - -
24/06:30am 25.5 ESE 13 19 1013.2 - 0.0 - Partly cloudy 10 - - - -
24/06:00am 25.5 ESE 11 19 1013.1 - 0.0 - Partly cloudy 10 - - - -
24/05:40am 25.6 E 10 19 1013.0 - 0.0 - Partly cloudy 10 - - - -
24/05:30am 25.6 E 10 19 1012.9 - 0.0 - Partly cloudy 10 - - - -
24/05:00am 25.6 ESE 11 18 1012.8 - 0.0 - Partly cloudy 10 - - - -
24/04:40am 25.6 E 9 17 1012.9 - 0.0 - Partly cloudy 10 - - - -
24/04:30am 25.6 E 10 18 1012.9 - 0.0 - Partly cloudy 10 - - - -
24/04:22am 25.6 E 10 17 1012.9 - 0.0 - Partly cloudy 10 - - - -
24/04:00am 25.5 ESE 12 23 1011.3 - 0.0 - Cloudy 10 - - - -
24/03:47am 25.6 ESE 12 21 1012.9 - 0.0 - Partly cloudy 10 - - - -
24/03:30am 25.5 ESE 11 17 1013.0 - 0.0 - Partly cloudy 10 - - - -
24/03:00am 25.6 ESE 12 17 1013.1 - 0.0 - Partly cloudy 10 - - - -
24/02:30am 25.7 ESE 13 19 1013.2 - 0.0 - Partly cloudy 10 - - - -
24/02:00am 25.7 ESE 11 17 1013.3 - 0.0 - Partly cloudy 10 - - - -
24/01:30am 25.6 ESE 11 18 1013.6 - 0.0 - Partly cloudy 10 - - - -
24/01:00am 25.7 ESE 11 15 1012.3 - 0.0 - Cloudy 10 - - - -
24/12:30am 25.5 ESE 13 20 1014.1 - 0.0 - Partly cloudy 10 - - - -
24/12:00am 25.7 ESE 11 15 1014.2 - 0.0 - Partly cloudy 10 - - - -
 
Date/Time
WST
Temp
°C
Wind Pressure Rain since
9am
mm
Weather Cloud Vis
km
Sea
Height
m
Swell
Dir  Spd
kts
Gust
kts
hPa Trend Height
m
Period
s
Dir
23/11:39pm 25.8 ESE 11 17 1014.1 - 0.0 - Partly cloudy 10 - - - -
23/11:33pm 25.8 ESE 12 20 1014.1 - 0.0 - Partly cloudy 10 - - - -
23/11:30pm 25.7 ESE 12 20 1014.1 - 0.0 - Partly cloudy 10 - - - -
23/11:17pm 25.8 ESE 11 20 1014.1 - 0.0 - Partly cloudy 10 - - - -
23/11:11pm 25.7 ESE 11 18 1014.1 - 0.0 - Partly cloudy 10 - - - -
23/11:00pm 25.8 ESE 11 19 1014.1 - 0.0 - Partly cloudy 10 - - - -
23/10:30pm 25.7 ESE 10 14 1013.9 - 0.0 - Cloudy 10 - - - -
23/10:00pm 25.7 ESE 11 17 1012.1 - 0.0 - Mostly cloudy 10 - - - -

Other Formats:

Comma delimited format used in spreadsheet applications
http://www.bom.gov.au/fwo/IDW60701/IDW60701.96995.axf

JavaScript Object Notation format (JSON) in row-major order
http://www.bom.gov.au/fwo/IDW60701/IDW60701.96995.json